Map

Track Data

SID SEASON NUMBER BASIN SUBBASIN NAME ISO_TIME NATURE LAT LON WMO_WIND WMO_PRES WMO_AGENCY TRACK_TYPE DIST2LAND LANDFALL IFLAG USA_AGENCY USA_ATCF_ID USA_LAT USA_LON USA_RECORD USA_STATUS USA_WIND USA_PRES USA_SSHS USA_R34_NE USA_R34_SE USA_R34_SW USA_R34_NW USA_R50_NE USA_R50_SE USA_R50_SW USA_R50_NW USA_R64_NE USA_R64_SE USA_R64_SW USA_R64_NW USA_POCI USA_ROCI USA_RMW USA_EYE TOKYO_LAT TOKYO_LON TOKYO_GRADE TOKYO_WIND TOKYO_PRES TOKYO_R50_DIR TOKYO_R50_LONG TOKYO_R50_SHORT TOKYO_R30_DIR TOKYO_R30_LONG TOKYO_R30_SHORT TOKYO_LAND CMA_LAT CMA_LON CMA_CAT CMA_WIND CMA_PRES HKO_LAT HKO_LON HKO_CAT HKO_WIND HKO_PRES NEWDELHI_LAT NEWDELHI_LON NEWDELHI_GRADE NEWDELHI_WIND NEWDELHI_PRES NEWDELHI_CI NEWDELHI_DP NEWDELHI_POCI REUNION_LAT REUNION_LON REUNION_TYPE REUNION_WIND REUNION_PRES REUNION_TNUM REUNION_CI REUNION_RMW REUNION_R34_NE REUNION_R34_SE REUNION_R34_SW REUNION_R34_NW REUNION_R50_NE REUNION_R50_SE REUNION_R50_SW REUNION_R50_NW REUNION_R64_NE REUNION_R64_SE REUNION_R64_SW REUNION_R64_NW BOM_LAT BOM_LON BOM_TYPE BOM_WIND BOM_PRES BOM_TNUM BOM_CI BOM_RMW BOM_R34_NE BOM_R34_SE BOM_R34_SW BOM_R34_NW BOM_R50_NE BOM_R50_SE BOM_R50_SW BOM_R50_NW BOM_R64_NE BOM_R64_SE BOM_R64_SW BOM_R64_NW BOM_ROCI BOM_POCI BOM_EYE BOM_POS_METHOD BOM_PRES_METHOD NADI_LAT NADI_LON NADI_CAT NADI_WIND NADI_PRES WELLINGTON_LAT WELLINGTON_LON WELLINGTON_WIND WELLINGTON_PRES DS824_LAT DS824_LON DS824_STAGE DS824_WIND DS824_PRES TD9636_LAT TD9636_LON TD9636_STAGE TD9636_WIND TD9636_PRES TD9635_LAT TD9635_LON TD9635_WIND TD9635_PRES TD9635_ROCI NEUMANN_LAT NEUMANN_LON NEUMANN_CLASS NEUMANN_WIND NEUMANN_PRES MLC_LAT MLC_LON MLC_CLASS MLC_WIND MLC_PRES USA_GUST BOM_GUST BOM_GUST_PER REUNION_GUST REUNION_GUST_PER USA_SEAHGT USA_SEARAD_NE USA_SEARAD_SE USA_SEARAD_SW USA_SEARAD_NW STORM_SPEED STORM_DIR
1990043S09206 1990 11 SP MM PENI 1990-02-12 00:00:00 TS -8.60000 -154.300 main 2035 2031 O___________O_ jtwc_sh SH161990 -8.60000 -154.300 15 -1 -8.60000 -154.300 TC 15 5 140
1990043S09206 1990 11 SP MM PENI 1990-02-12 03:00:00 TS -8.79503 -154.135 main 2049 2045 P___________P_ SH161990 -8.79503 -154.135 17 -1 -8.79503 -154.135 TC 17 5 144
1990043S09206 1990 11 SP MM PENI 1990-02-12 06:00:00 TS -9.00000 -154.000 main 2053 2053 O___________O_ jtwc_sh SH161990 -9.00000 -154.000 20 -1 -9.00000 -154.000 TC 20 5 155
1990043S09206 1990 11 SP MM PENI 1990-02-12 09:00:00 TS -9.22745 -153.933 main 2057 1960 P___________P_ SH161990 -9.22745 -153.933 22 -1 -9.22745 -153.933 TC 22 10 233
1990043S09206 1990 11 SP MM PENI 1990-02-12 12:00:00 TS -9.57778 -154.778 40 990 wellington main 1950 1867 O_______O___O_ jtwc_sh SH161990 -9.50000 -154.000 25 -1 -10.2000 -161.000 40 990 -9.50000 -154.000 TC 25 17 247
1990043S09206 1990 11 SP MM PENI 1990-02-12 15:00:00 TS -9.90846 -155.545 main 1867 1784 P_______P___P_ SH161990 -9.84248 -154.232 25 -1 -10.1724 -160.794 40 990 -9.84248 -154.232 TC 25 16 247
1990043S09206 1990 11 SP MM PENI 1990-02-12 18:00:00 TS -10.1934 -156.226 main 1784 1726 O_______P___O_ jtwc_sh SH161990 -10.2000 -154.600 25 -1 -10.1758 -160.560 40 990 -10.2000 -154.600 TC 25 13 247
1990043S09206 1990 11 SP MM PENI 1990-02-12 21:00:00 TS -10.4138 -156.766 main 1715 1686 P_______P___P_ SH161990 -10.5000 -155.013 25 -1 -10.2414 -160.272 40 990 -10.5000 -155.013 TC 25 9 237
1990043S09206 1990 11 SP MM PENI 1990-02-13 00:00:00 TS -10.6667 -156.967 40 990 wellington main 1686 1657 O_______O___O_ jtwc_sh SH161990 -10.8000 -155.500 25 -1 -10.4000 -159.900 40 990 -10.8000 -155.500 TC 25 7 215
1990043S09206 1990 11 SP MM PENI 1990-02-13 03:00:00 TS -10.9842 -157.176 main 1657 1629 P_______P___P_ SH161990 -11.1425 -156.043 27 -1 -10.6675 -159.443 40 990 -11.1425 -156.043 TC 27 8 213
1990043S09206 1990 11 SP MM PENI 1990-02-13 06:00:00 TS -11.3333 -157.400 40 990 wellington main 1629 1602 O_______O___O_ jtwc_sh SH161990 -11.5000 -156.600 30 -1 -11.0000 -159.000 40 990 -11.5000 -156.600 TC 30 8 214
1990043S09206 1990 11 SP MM PENI 1990-02-13 09:00:00 TS -11.6533 -157.638 main 1600 1562 P_______P___P_ SH161990 -11.8350 -157.138 32 -1 -11.2900 -158.640 40 990 -11.8350 -157.138 TC 32 8 213
1990043S09206 1990 11 SP MM PENI 1990-02-13 12:00:00 TS -12.0333 -157.867 40 990 wellington main 1562 1544 O_______O___O_ jtwc_sh SH161990 -12.2000 -157.600 35 0 -11.7000 -158.400 40 990 -12.2000 -157.600 TC 35 10 204
1990043S09206 1990 11 SP MM PENI 1990-02-13 15:00:00 TS -12.5491 -158.053 main 1533 1516 P_______P___P_ SH161990 -12.6424 -157.945 37 0 -12.3624 -158.268 40 990 -12.6424 -157.945 TC 37 11 199
1990043S09206 1990 11 SP MM PENI 1990-02-13 18:00:00 TS -13.1000 -158.233 40 990 wellington main 1516 1480 O_______O___O_ jtwc_sh SH161990 -13.1000 -158.200 40 0 -13.1000 -158.300 40 990 -13.1000 -158.200 TC 40 11 201
1990043S09206 1990 11 SP MM PENI 1990-02-13 21:00:00 TS -13.6142 -158.465 main 1480 1457 P_______P___P_ SH161990 -13.5375 -158.438 40 0 -13.7676 -158.520 47 985 -13.5375 -158.438 TC 40 10 204
1990043S09206 1990 11 SP MM PENI 1990-02-14 00:00:00 TS -14.0333 -158.667 55 980 wellington main 1457 1447 O_______O___O_ jtwc_sh SH161990 -13.9000 -158.600 40 0 -14.3000 -158.800 55 980 -13.9000 -158.600 TC 40 7 204
1990043S09206 1990 11 SP MM PENI 1990-02-14 03:00:00 TS -14.2800 -158.768 main 1447 1447 P_______P___P_ SH161990 -14.1225 -158.665 40 0 -14.5950 -158.973 55 980 -14.1225 -158.665 TC 40 5 201
1990043S09206 1990 11 SP MM PENI 1990-02-14 06:00:00 TS -14.4667 -158.833 55 980 wellington main 1447 1436 O_______O___O_ jtwc_sh SH161990 -14.3000 -158.700 40 0 -14.8000 -159.100 55 980 -14.3000 -158.700 TC 40 5 200
1990043S09206 1990 11 SP MM PENI 1990-02-14 09:00:00 TS -14.7108 -158.933 main 1437 1427 P_______P___P_ SH161990 -14.5200 -158.793 42 0 -15.0925 -159.215 55 980 -14.5200 -158.793 TC 42 6 200
1990043S09206 1990 11 SP MM PENI 1990-02-14 12:00:00 TS -15.0000 -159.033 55 980 wellington main 1428 1418 O_______O___O_ jtwc_sh SH161990 -14.8000 -158.900 45 0 -15.4000 -159.300 55 980 -14.8000 -158.900 TC 45 7 196
1990043S09206 1990 11 SP MM PENI 1990-02-14 15:00:00 TS -15.3342 -159.119 main 1420 1411 P_______P___P_ SH161990 -15.1700 -159.000 45 0 -15.6850 -159.365 55 980 -15.1475 -158.993 TC 47 8 193
1990043S09206 1990 11 SP MM PENI 1990-02-14 18:00:00 TS -15.7333 -159.200 55 980 wellington main 1414 1408 O_______O___O_ jtwc_sh SH161990 -15.6000 -159.100 45 0 -16.0000 -159.400 55 980 -15.6000 -159.100 TC 50 9 191
1990043S09206 1990 11 SP MM PENI 1990-02-14 21:00:00 TS -16.1917 -159.293 main 1411 1409 P_______P___P_ SH161990 -16.0350 -159.208 47 0 -16.3625 -159.408 55 980 -16.1775 -159.265 TC 52 10 189
1990043S09206 1990 11 SP MM PENI 1990-02-15 00:00:00 TS -16.7000 -159.367 55 980 wellington main 1411 1411 O_______O___O_ jtwc_sh SH161990 -16.5000 -159.300 50 0 -16.8000 -159.400 55 980 -16.8000 -159.400 TC 55 10 187
1990043S09206 1990 11 SP MM PENI 1990-02-15 03:00:00 TS -17.2133 -159.416 main 1423 1423 P_______P___P_ SH161990 -16.9850 -159.395 52 0 -17.3125 -159.415 60 975 -17.3425 -159.438 TC 60 11 182
1990043S09206 1990 11 SP MM PENI 1990-02-15 06:00:00 TS -17.7667 -159.400 65 970 wellington main 1440 1440 O_______O___O_ jtwc_sh SH161990 -17.5000 -159.400 55 0 -17.9000 -159.400 65 970 -17.9000 -159.400 TC 65 12 176
1990043S09206 1990 11 SP MM PENI 1990-02-15 09:00:00 TS -18.3832 -159.334 main 1470 1470 P_______P___P_ SH161990 -18.0499 -159.267 57 0 -18.5498 -159.367 65 970 -18.5498 -159.367 TC 65 13 168
1990043S09206 1990 11 SP MM PENI 1990-02-15 12:00:00 TS -19.0000 -159.133 65 970 wellington main 1513 1513 O_______O___O_ jtwc_sh SH161990 -18.6000 -159.000 60 0 -19.2000 -159.200 65 970 -19.2000 -159.200 TC 65 13 155
1990043S09206 1990 11 SP MM PENI 1990-02-15 15:00:00 TS -19.5384 -158.755 main 1563 1563 P_______P___P_ SH161990 -19.0848 -158.659 60 0 -19.7652 -158.803 65 970 -19.7652 -158.803 TC 67 13 143
1990043S09206 1990 11 SP MM PENI 1990-02-15 18:00:00 TS -20.0667 -158.267 65 970 wellington main 1637 1637 O_______O___O_ jtwc_sh SH161990 -19.6000 -158.200 60 0 -20.3000 -158.300 65 970 -20.3000 -158.300 TC 70 14 141
1990043S09206 1990 11 SP MM PENI 1990-02-15 21:00:00 TS -20.6297 -157.799 main 1707 1707 P_______P___P_ SH161990 -20.2198 -157.652 60 0 -20.8347 -157.872 65 970 -20.8347 -157.872 TC 70 15 141
1990043S09206 1990 11 SP MM PENI 1990-02-16 00:00:00 TS -21.2333 -157.267 65 970 wellington main 1782 1782 O_______O___O_ jtwc_sh SH161990 -20.9000 -157.000 60 0 -21.4000 -157.400 65 970 -21.4000 -157.400 TC 70 17 140
1990043S09206 1990 11 SP MM PENI 1990-02-16 03:00:00 TS -21.8874 -156.649 main 1881 1881 P_______P___P_ SH161990 -21.5925 -156.272 55 0 -22.0348 -156.837 65 970 -22.0348 -156.837 TC 70 18 138
1990043S09206 1990 11 SP MM PENI 1990-02-16 06:00:00 TS -22.5667 -155.967 65 970 wellington main 1971 1971 O_______O___O_ jtwc_sh SH161990 -22.3000 -155.500 50 0 -22.7000 -156.200 65 970 -22.7000 -156.200 TC 70 18 137
1990043S09206 1990 11 SP MM PENI 1990-02-16 09:00:00 TS -23.2227 -155.286 main 2066 2066 P_______P___P_ SH161990 -22.9995 -154.757 45 0 -23.3343 -155.551 65 970 -23.3343 -155.551 TC 67 19 135
1990043S09206 1990 11 SP MM PENI 1990-02-16 12:00:00 TS -23.9000 -154.533 65 970 wellington main 2175 2175 O_______O___O_ jtwc_sh SH161990 -23.7000 -154.000 40 0 -24.0000 -154.800 65 970 -24.0000 -154.800 TC 65 20 134
1990043S09206 1990 11 SP MM PENI 1990-02-16 15:00:00 TS -24.6205 -153.675 main 2283 2283 P_______P___P_ SH161990 -24.3914 -153.251 37 0 -24.7351 -153.887 65 970 -24.7351 -153.887 TC 65 22 133
1990043S09206 1990 11 SP MM PENI 1990-02-16 18:00:00 TS -25.3909 -152.764 65 970 wellington main 2405 2405 O_______O___O_ jtwc_sh SH161990 -25.1000 -152.400 35 0 -25.5000 -152.900 65 970 -25.5000 -152.900 TC 65 22 133
1990043S09206 1990 11 SP MM PENI 1990-02-16 21:00:00 TS -26.1548 -151.884 main 2528 2528 P_______P___P_ SH161990 -25.8424 -151.361 32 -1 -26.2329 -152.014 65 970 -26.2329 -152.014 TC 65 23 133
1990043S09206 1990 11 SP MM PENI 1990-02-17 00:00:00 TS -26.9556 -150.911 65 970 wellington main 2658 2658 O_______O___O_ jtwc_sh SH161990 -26.6000 -150.200 30 -1 -27.0000 -151.000 65 970 -27.0000 -151.000 TC 65 26 130
1990043S09206 1990 11 SP MM PENI 1990-02-17 03:00:00 TS -27.8442 -149.624 main 2813 2813 ________P___P_ SH161990 -1 -27.8442 -149.624 62 972 -27.8442 -149.624 TC 60 30 126
1990043S09206 1990 11 SP MM PENI 1990-02-17 06:00:00 TS -28.7000 -148.200 60 975 wellington main 2982 2982 ________O___O_ -1 -28.7000 -148.200 60 975 -28.7000 -148.200 TC 55 28 126
1990043S09206 1990 11 SP MM PENI 1990-02-17 09:00:00 TS -29.4978 -147.052 main 3119 3119 ________P___P_ -1 -29.4987 -147.015 57 977 -29.4969 -147.088 TC 50 25 130
1990043S09206 1990 11 SP MM PENI 1990-02-17 12:00:00 TS -30.3000 -146.000 55 980 wellington main 3254 3254 ________O___O_ -1 -30.3000 -146.000 55 980 -30.3000 -146.000 TC 45 25 131
1990043S09206 1990 11 SP MM PENI 1990-02-17 15:00:00 TS -31.1657 -144.833 main 3403 3403 ________P___P_ -1 -31.1634 -145.118 52 982 -31.1680 -144.548 TC 40 25 132
1990043S09206 1990 11 SP MM PENI 1990-02-17 18:00:00 TS -32.0000 -143.800 50 985 wellington main 3458 3458 ________O___O_ -1 -32.0000 -144.300 50 985 -32.0000 -143.300 TC 35 22 136
1990043S09206 1990 11 SP MM PENI 1990-02-17 21:00:00 TS -32.7322 -143.060 main 3491 3491 ________P___P_ -1 -32.7344 -143.425 50 985 -32.7301 -142.695 TC 35 18 142
1990043S09206 1990 11 SP MM PENI 1990-02-18 00:00:00 TS -33.4000 -142.500 50 985 wellington main 3518 ________O___O_ -1 -33.4000 -142.500 50 985 -33.4000 -142.500 TC 35 16 145

Digital Typhoon Data and Search

About IBTrACS Database

This database is a web-friendly format of International Best Track Archive for Climate Stewardship (IBTrACS), a global best track data archive curated by NOAA dating back to 1842.

Updated: 2021-10-21